Time;durP1;ratioP1;P1;durP2;ratioP2;P2;SDS_P1;SDS_P2;PMS_P1;PMS_P2;Temp;Humidity;BMP_temperature;BMP_pressure;BME280_temperature;BME280_humidity;BME280_pressure;Samples;Min_cycle;Max_cycle;Signal;HPM_P1;HPM_P2
2021/06/19 00:00:13;;;;;;;4.22;2.38;;;17.20;61.30;;;;;;5085940;28;20103;-83
2021/06/19 00:02:39;;;;;;;2.55;2.35;;;17.20;61.40;;;;;;5069479;28;20523;-82
2021/06/19 00:05:07;;;;;;;2.30;2.10;;;17.20;61.40;;;;;;5106619;28;20483;-83
2021/06/19 00:07:34;;;;;;;2.03;1.83;;;17.20;61.40;;;;;;5090443;28;20078;-80
2021/06/19 00:09:59;;;;;;;2.42;2.22;;;17.10;61.20;;;;;;5090066;28;20115;-83
2021/06/19 00:12:25;;;;;;;4.40;2.08;;;17.10;61.30;;;;;;5106460;28;20111;-84
2021/06/19 00:14:52;;;;;;;2.65;2.10;;;17.10;61.30;;;;;;5090429;28;20166;-83
2021/06/19 00:17:17;;;;;;;2.60;2.15;;;17.10;61.60;;;;;;5090501;28;20424;-84
2021/06/19 00:19:43;;;;;;;1.95;1.75;;;17.10;61.30;;;;;;5089376;28;20117;-79
2021/06/19 00:22:09;;;;;;;2.78;2.10;;;17.10;61.40;;;;;;5090598;28;20067;-83
2021/06/19 00:24:38;;;;;;;2.45;2.25;;;17.00;61.20;;;;;;5090777;28;20078;-84
2021/06/19 00:27:07;;;;;;;2.58;1.73;;;17.00;61.30;;;;;;5090017;28;20028;-82
2021/06/19 00:29:34;;;;;;;3.45;2.33;;;17.00;61.30;;;;;;5088428;28;20411;-83
2021/06/19 00:32:00;;;;;;;3.22;2.45;;;17.00;61.30;;;;;;5090261;28;20201;-81
2021/06/19 00:34:26;;;;;;;2.25;2.05;;;16.90;61.10;;;;;;5106040;28;20031;-83
2021/06/19 00:36:53;;;;;;;2.97;2.30;;;16.90;61.20;;;;;;5089631;28;20039;-84
2021/06/19 00:39:19;;;;;;;3.03;2.00;;;16.90;61.20;;;;;;5072149;28;20454;-82
2021/06/19 00:41:45;;;;;;;2.13;1.92;;;16.90;61.30;;;;;;5088204;28;20164;-83
2021/06/19 00:44:19;;;;;;;2.47;2.05;;;16.90;61.20;;;;;;5088507;28;20061;-82
2021/06/19 00:46:56;;;;;;;2.88;2.03;;;16.80;61.20;;;;;;5089638;28;20044;-84
2021/06/19 00:49:24;;;;;;;3.42;2.60;;;16.80;61.20;;;;;;5051659;28;20033;-84
2021/06/19 00:51:50;;;;;;;2.45;2.25;;;16.80;61.20;;;;;;5068325;28;20028;-84
2021/06/19 00:54:17;;;;;;;2.72;2.53;;;16.70;61.10;;;;;;5082916;28;20083;-84
2021/06/19 00:56:43;;;;;;;2.50;2.30;;;16.70;61.10;;;;;;5090360;28;20115;-83
2021/06/19 00:59:11;;;;;;;2.83;2.58;;;16.70;61.10;;;;;;5087801;28;20020;-81
2021/06/19 01:01:38;;;;;;;3.03;2.70;;;16.70;61.20;;;;;;5105450;28;20032;-80
2021/06/19 01:04:06;;;;;;;3.47;2.55;;;16.70;61.20;;;;;;5087935;28;20101;-84
2021/06/19 01:06:34;;;;;;;3.72;2.50;;;16.70;61.20;;;;;;5089774;28;20111;-83
2021/06/19 01:09:00;;;;;;;2.83;2.40;;;16.70;61.30;;;;;;5105065;28;20553;-83
2021/06/19 01:11:27;;;;;;;2.72;2.53;;;16.60;61.10;;;;;;5089024;28;20060;-83
2021/06/19 01:13:53;;;;;;;2.83;2.47;;;16.60;61.10;;;;;;5088597;28;20541;-80
2021/06/19 01:16:20;;;;;;;2.60;2.30;;;16.60;61.20;;;;;;5088947;28;20119;-82
2021/06/19 01:18:48;;;;;;;3.15;2.58;;;16.60;61.20;;;;;;5087556;28;20024;-79
2021/06/19 01:21:15;;;;;;;2.92;2.67;;;16.60;61.20;;;;;;5089129;28;20048;-82
2021/06/19 01:23:42;;;;;;;3.10;2.80;;;16.60;61.20;;;;;;5079335;28;20033;-80
2021/06/19 01:26:11;;;;;;;2.60;2.40;;;16.60;61.20;;;;;;5084653;28;20384;-79
2021/06/19 01:28:37;;;;;;;2.58;2.38;;;16.60;61.20;;;;;;5088133;28;20051;-78
2021/06/19 01:31:04;;;;;;;2.60;2.30;;;16.60;61.30;;;;;;5104068;28;20020;-82
2021/06/19 01:33:30;;;;;;;4.07;2.80;;;16.60;61.20;;;;;;5060722;28;20063;-79
2021/06/19 01:35:57;;;;;;;3.38;2.72;;;16.60;61.30;;;;;;5068304;28;20060;-82
2021/06/19 01:38:23;;;;;;;4.07;3.20;;;16.60;61.20;;;;;;5068452;28;20078;-80
2021/06/19 01:40:49;;;;;;;3.35;3.05;;;16.60;61.30;;;;;;5085011;28;20041;-83
2021/06/19 01:43:15;;;;;;;3.17;2.88;;;16.50;61.10;;;;;;5069089;28;20097;-82
2021/06/19 01:45:41;;;;;;;2.58;2.38;;;16.50;61.10;;;;;;5073506;28;20028;-79
2021/06/19 01:48:08;;;;;;;3.05;2.75;;;16.50;61.10;;;;;;5091933;28;20078;-84
2021/06/19 01:50:35;;;;;;;2.85;2.50;;;16.50;61.10;;;;;;5091180;28;20057;-83
2021/06/19 01:53:02;;;;;;;2.70;2.50;;;16.50;61.20;;;;;;5092096;28;20024;-84
2021/06/19 01:55:28;;;;;;;2.95;2.50;;;16.50;61.20;;;;;;5090458;28;20514;-85
2021/06/19 01:57:56;;;;;;;2.78;2.58;;;16.50;61.20;;;;;;5092389;28;20069;-80
2021/06/19 02:00:27;;;;;;;3.08;2.78;;;16.50;61.20;;;;;;5092620;28;20024;-85
2021/06/19 02:02:54;;;;;;;2.55;2.35;;;16.50;61.20;;;;;;5092886;28;20043;-84
2021/06/19 02:05:21;;;;;;;3.13;2.63;;;16.50;61.30;;;;;;5093084;28;20119;-84
2021/06/19 02:07:56;;;;;;;2.88;2.63;;;16.50;61.20;;;;;;5092703;28;20028;-83
2021/06/19 02:10:29;;;;;;;3.03;2.72;;;16.50;61.30;;;;;;5091567;28;20156;-85
2021/06/19 02:12:56;;;;;;;2.58;2.38;;;16.40;61.10;;;;;;5092800;28;20036;-80
2021/06/19 02:15:24;;;;;;;3.10;2.63;;;16.40;61.10;;;;;;5091982;28;20031;-80
2021/06/19 02:17:50;;;;;;;2.80;2.60;;;16.40;61.10;;;;;;5091776;28;20027;-82
2021/06/19 02:20:18;;;;;;;4.63;3.05;;;16.40;61.10;;;;;;5092853;28;20157;-85
2021/06/19 02:22:44;;;;;;;2.95;2.75;;;16.40;61.70;;;;;;5108330;28;20051;-81
2021/06/19 02:25:13;;;;;;;2.85;2.65;;;16.40;61.10;;;;;;5107940;28;20223;-86
2021/06/19 02:27:57;;;;;;;2.55;2.35;;;16.40;61.10;;;;;;5091193;28;20399;-82
2021/06/19 02:30:25;;;;;;;2.97;2.78;;;16.40;61.20;;;;;;5074449;28;20020;-80
2021/06/19 02:32:53;;;;;;;3.17;2.90;;;16.40;61.10;;;;;;5091095;28;20468;-83
2021/06/19 02:35:22;;;;;;;3.25;2.90;;;16.40;61.10;;;;;;5108248;28;20020;-83
2021/06/19 02:37:48;;;;;;;3.20;2.90;;;16.40;61.10;;;;;;5090681;28;20028;-82
2021/06/19 02:40:15;;;;;;;3.13;2.65;;;16.40;61.10;;;;;;5107965;28;20028;-80
2021/06/19 02:42:44;;;;;;;3.47;3.00;;;16.30;60.90;;;;;;5090772;28;20047;-80
2021/06/19 02:45:12;;;;;;;4.53;2.88;;;16.40;61.10;;;;;;5108482;28;20028;-80
2021/06/19 02:47:50;;;;;;;2.97;2.67;;;16.40;61.10;;;;;;5074088;28;20085;-82
2021/06/19 02:50:20;;;;;;;3.33;3.03;;;16.40;61.20;;;;;;5091023;28;20116;-82
2021/06/19 02:52:46;;;;;;;3.58;3.28;;;16.40;61.10;;;;;;5090694;28;20028;-80
2021/06/19 02:55:19;;;;;;;3.42;3.13;;;16.40;61.10;;;;;;5090671;28;20024;-80
2021/06/19 02:57:47;;;;;;;3.88;2.90;;;16.40;61.20;;;;;;5090450;28;20028;-81
2021/06/19 03:00:17;;;;;;;2.60;2.40;;;16.40;61.10;;;;;;5091331;28;20419;-83
2021/06/19 03:02:46;;;;;;;2.85;2.65;;;16.30;60.90;;;;;;5073945;28;20044;-81
2021/06/19 03:05:18;;;;;;;3.28;2.97;;;16.30;60.90;;;;;;5107073;28;20028;-79
2021/06/19 03:07:45;;;;;;;2.90;2.70;;;16.30;61.00;;;;;;5074337;28;20035;-80
2021/06/19 03:10:14;;;;;;;2.88;2.67;;;16.30;60.90;;;;;;5074068;28;20020;-83
2021/06/19 03:12:41;;;;;;;3.35;3.05;;;16.30;61.00;;;;;;5074374;28;20093;-83
2021/06/19 03:15:09;;;;;;;3.30;3.00;;;16.30;61.00;;;;;;5090521;28;20067;-80
2021/06/19 03:17:36;;;;;;;3.33;3.03;;;16.30;61.00;;;;;;5092121;28;20128;-84
2021/06/19 03:20:05;;;;;;;3.22;2.92;;;16.30;61.00;;;;;;5107780;28;20032;-81
2021/06/19 03:22:45;;;;;;;3.20;2.90;;;16.30;61.00;;;;;;5091718;28;20040;-83
2021/06/19 03:25:15;;;;;;;4.55;3.50;;;16.30;61.10;;;;;;5091995;28;20065;-83
2021/06/19 03:27:41;;;;;;;3.75;3.45;;;16.20;60.80;;;;;;5091492;28;20058;-83
2021/06/19 03:30:08;;;;;;;3.80;3.45;;;16.20;60.80;;;;;;5092373;28;20055;-80
2021/06/19 03:32:37;;;;;;;3.50;3.20;;;16.20;60.80;;;;;;5107447;28;20036;-82
2021/06/19 03:35:05;;;;;;;3.53;3.22;;;16.20;60.90;;;;;;5091750;28;20039;-83
2021/06/19 03:37:36;;;;;;;3.72;3.42;;;16.30;61.10;;;;;;5107128;28;20028;-82
2021/06/19 03:40:08;;;;;;;3.15;2.92;;;16.20;60.90;;;;;;5074281;28;20118;-82
2021/06/19 03:42:34;;;;;;;5.32;3.50;;;16.20;61.40;;;;;;5089507;28;20036;-79
2021/06/19 03:45:02;;;;;;;4.00;3.60;;;16.20;60.90;;;;;;5074339;28;20040;-83
2021/06/19 03:47:28;;;;;;;3.08;2.80;;;16.20;60.90;;;;;;5106979;28;20052;-81
2021/06/19 03:49:54;;;;;;;3.50;3.20;;;16.20;60.90;;;;;;5090165;28;20028;-83
2021/06/19 03:52:20;;;;;;;3.72;3.42;;;16.20;60.90;;;;;;5089933;28;20500;-80
2021/06/19 03:54:48;;;;;;;3.35;3.10;;;16.20;60.90;;;;;;5107296;28;20028;-82
2021/06/19 03:57:29;;;;;;;3.95;3.53;;;16.20;60.90;;;;;;5073385;28;20039;-80
2021/06/19 03:59:57;;;;;;;3.80;3.50;;;16.20;60.90;;;;;;5074073;28;20040;-84
2021/06/19 04:02:23;;;;;;;5.57;3.45;;;16.20;60.90;;;;;;5073219;28;20107;-82
2021/06/19 04:04:50;;;;;;;3.70;3.40;;;16.20;60.90;;;;;;5089978;28;20097;-81
2021/06/19 04:07:19;;;;;;;4.63;3.80;;;16.20;60.90;;;;;;5073259;28;20036;-83
2021/06/19 04:09:47;;;;;;;3.95;3.45;;;16.20;60.90;;;;;;5106704;28;20060;-81
2021/06/19 04:12:16;;;;;;;3.78;3.33;;;16.10;60.80;;;;;;5106863;28;20028;-81
2021/06/19 04:14:46;;;;;;;3.65;3.35;;;16.10;60.80;;;;;;5107516;28;20039;-81
2021/06/19 04:17:12;;;;;;;3.72;3.30;;;16.10;60.80;;;;;;5091631;28;20024;-84
2021/06/19 04:19:41;;;;;;;5.68;4.13;;;16.10;60.80;;;;;;5110553;28;20028;-81
2021/06/19 04:22:08;;;;;;;3.40;3.10;;;16.10;60.80;;;;;;5093319;28;20085;-81
2021/06/19 04:24:35;;;;;;;3.45;3.20;;;16.10;60.80;;;;;;5110480;28;20383;-81
2021/06/19 04:27:02;;;;;;;4.15;3.83;;;16.10;60.80;;;;;;5076706;28;20028;-78
2021/06/19 04:29:30;;;;;;;4.35;3.80;;;16.10;60.80;;;;;;5093502;28;20510;-82
2021/06/19 04:32:02;;;;;;;4.05;3.63;;;16.10;60.80;;;;;;5110568;28;20032;-80
2021/06/19 04:34:28;;;;;;;4.35;3.92;;;16.10;60.80;;;;;;5110234;28;20243;-81
2021/06/19 04:36:54;;;;;;;4.03;3.63;;;16.10;60.80;;;;;;5093084;28;20437;-82
2021/06/19 04:39:23;;;;;;;4.68;3.53;;;16.10;60.80;;;;;;5093296;28;20032;-84
2021/06/19 04:42:08;;;;;;;4.47;3.50;;;16.10;60.90;;;;;;5076241;28;20391;-81
2021/06/19 04:47:11;;;;;;;4.70;3.88;;;16.10;60.80;;;;;;5089782;28;20441;-80
2021/06/19 04:49:37;;;;;;;5.30;3.80;;;16.10;61.40;;;;;;5056723;28;20108;-83
2021/06/19 04:52:06;;;;;;;4.10;3.70;;;16.10;60.80;;;;;;5089219;28;20028;-81
2021/06/19 04:54:37;;;;;;;4.40;4.00;;;16.10;60.80;;;;;;5090318;28;20052;-80
2021/06/19 04:57:08;;;;;;;4.07;3.70;;;16.10;60.80;;;;;;5089606;28;20035;-81
2021/06/19 04:59:44;;;;;;;4.90;4.10;;;16.10;60.90;;;;;;5090156;28;20064;-79
2021/06/19 05:02:10;;;;;;;5.03;4.50;;;16.10;60.80;;;;;;5089276;28;20048;-81
2021/06/19 05:04:36;;;;;;;4.72;4.32;;;16.10;60.90;;;;;;5054152;28;20045;-80
2021/06/19 05:07:03;;;;;;;4.15;3.85;;;16.10;60.90;;;;;;5068330;28;20476;-78
2021/06/19 05:09:29;;;;;;;4.07;3.67;;;16.10;60.90;;;;;;5087658;28;20024;-78
2021/06/19 05:11:55;;;;;;;4.10;3.78;;;16.10;60.90;;;;;;5087623;28;20043;-79
2021/06/19 05:14:21;;;;;;;7.47;4.35;;;16.10;60.90;;;;;;5088832;28;20024;-84
2021/06/19 05:16:47;;;;;;;5.95;3.97;;;16.10;60.90;;;;;;5090970;28;20486;-81
2021/06/19 05:19:13;;;;;;;4.63;3.80;;;16.10;60.90;;;;;;5109331;28;20113;-82
2021/06/19 05:21:40;;;;;;;4.05;3.75;;;16.10;60.90;;;;;;5074997;28;20066;-84
2021/06/19 05:24:07;;;;;;;4.13;3.65;;;16.10;60.90;;;;;;5082012;28;20020;-83
2021/06/19 05:26:33;;;;;;;4.22;3.83;;;16.10;60.90;;;;;;5088440;28;20032;-83
2021/06/19 05:28:59;;;;;;;3.92;3.58;;;16.10;60.90;;;;;;5073671;28;20249;-82
2021/06/19 05:31:26;;;;;;;4.68;3.50;;;16.10;60.90;;;;;;5069127;28;20889;-82
2021/06/19 05:33:52;;;;;;;4.53;4.13;;;16.10;60.90;;;;;;5083760;28;20240;-84
2021/06/19 05:36:18;;;;;;;4.10;3.78;;;16.10;60.90;;;;;;5067173;28;20028;-81
2021/06/19 05:38:46;;;;;;;4.35;3.95;;;16.10;60.90;;;;;;5080152;28;20044;-84
2021/06/19 05:41:12;;;;;;;4.30;3.90;;;16.20;61.00;;;;;;5103315;28;20067;-85
2021/06/19 05:43:41;;;;;;;4.28;3.75;;;16.20;61.00;;;;;;5078905;28;20090;-83
2021/06/19 05:46:09;;;;;;;3.65;3.35;;;16.20;61.00;;;;;;5068497;28;20029;-82
2021/06/19 05:48:37;;;;;;;3.70;3.40;;;16.20;61.00;;;;;;5081583;28;20504;-83
2021/06/19 05:51:03;;;;;;;5.03;3.03;;;16.20;60.90;;;;;;5069905;28;20094;-82
2021/06/19 05:53:29;;;;;;;4.00;3.70;;;16.30;61.10;;;;;;5073481;28;20051;-83
2021/06/19 05:55:55;;;;;;;3.95;3.47;;;16.30;61.00;;;;;;5078262;28;20468;-82
2021/06/19 05:58:21;;;;;;;4.10;3.40;;;16.30;61.00;;;;;;5076352;28;20042;-80
2021/06/19 06:00:47;;;;;;;3.97;3.67;;;16.30;60.90;;;;;;5094364;28;20114;-79
2021/06/19 06:03:13;;;;;;;8.50;3.30;;;16.40;61.10;;;;;;5077527;28;20115;-81
2021/06/19 06:05:39;;;;;;;3.53;3.20;;;16.40;61.00;;;;;;5077493;28;20024;-81
2021/06/19 06:08:05;;;;;;;3.80;3.47;;;16.50;61.20;;;;;;5077000;28;20078;-84
2021/06/19 06:10:32;;;;;;;7.03;3.40;;;16.40;60.90;;;;;;5076295;28;20092;-83
2021/06/19 06:12:58;;;;;;;3.80;3.40;;;16.50;61.00;;;;;;5089177;28;20295;-81
2021/06/19 06:15:27;;;;;;;4.38;2.70;;;16.50;61.00;;;;;;5072168;28;20028;-80
2021/06/19 06:17:53;;;;;;;6.47;3.80;;;16.60;61.10;;;;;;5088000;28;20027;-78
2021/06/19 06:20:20;;;;;;;6.00;3.72;;;16.60;61.20;;;;;;5087044;28;20032;-84
2021/06/19 06:22:46;;;;;;;5.07;3.65;;;16.70;61.50;;;;;;5085765;28;20067;-81
2021/06/19 06:25:12;;;;;;;9.02;3.75;;;16.70;61.50;;;;;;5078551;28;20034;-80
2021/06/19 06:27:39;;;;;;;3.63;3.00;;;16.80;61.70;;;;;;5087386;28;20078;-78
2021/06/19 06:30:06;;;;;;;4.10;3.70;;;16.80;61.70;;;;;;5102912;28;20474;-78
2021/06/19 06:32:34;;;;;;;5.43;4.60;;;16.90;62.20;;;;;;5087222;28;20036;-79
2021/06/19 06:35:00;;;;;;;8.98;4.57;;;16.90;62.50;;;;;;5086623;28;20040;-79
2021/06/19 06:37:26;;;;;;;11.45;4.07;;;17.00;63.10;;;;;;5078896;28;20040;-80
2021/06/19 06:39:52;;;;;;;5.22;4.28;;;17.10;63.50;;;;;;5070315;28;20016;-78
2021/06/19 06:42:18;;;;;;;5.18;3.70;;;17.20;63.90;;;;;;5080002;28;20036;-80
2021/06/19 06:44:44;;;;;;;5.18;3.70;;;17.20;64.00;;;;;;5074603;28;20027;-79
2021/06/19 06:47:10;;;;;;;4.03;3.60;;;17.30;64.30;;;;;;5076117;28;20445;-79
2021/06/19 06:49:36;;;;;;;4.45;3.65;;;17.30;64.40;;;;;;5076562;28;20035;-80
2021/06/19 06:52:03;;;;;;;3.85;3.45;;;17.40;64.70;;;;;;5075384;28;20031;-79
2021/06/19 06:54:29;;;;;;;3.53;3.20;;;17.40;64.70;;;;;;5090509;28;20137;-78
2021/06/19 06:56:55;;;;;;;4.00;3.35;;;17.50;65.00;;;;;;5086982;28;20035;-77
2021/06/19 06:59:22;;;;;;;4.05;3.40;;;17.50;65.00;;;;;;5086458;28;20024;-78
2021/06/19 07:01:48;;;;;;;10.70;3.70;;;17.50;65.00;;;;;;5102709;28;20040;-78
2021/06/19 07:04:14;;;;;;;4.07;3.45;;;17.60;65.20;;;;;;5085544;28;20257;-79
2021/06/19 07:06:40;;;;;;;4.85;3.05;;;17.60;65.40;;;;;;5085600;28;20057;-78
2021/06/19 07:09:06;;;;;;;6.40;3.50;;;17.70;65.70;;;;;;5086120;28;20028;-79
2021/06/19 07:11:32;;;;;;;3.70;2.88;;;17.70;65.70;;;;;;5086903;28;20024;-79
2021/06/19 07:13:58;;;;;;;3.15;2.85;;;17.80;65.90;;;;;;5103188;28;20120;-81
2021/06/19 07:16:25;;;;;;;5.28;3.95;;;17.90;66.10;;;;;;5103752;28;20085;-83
2021/06/19 07:18:50;;;;;;;4.10;2.65;;;18.00;65.60;;;;;;5069251;28;20031;-82
2021/06/19 07:21:16;;;;;;;3.38;2.75;;;17.90;64.70;;;;;;5085869;28;20028;-82
2021/06/19 07:23:43;;;;;;;4.45;2.95;;;17.90;64.20;;;;;;5086533;28;20031;-81
2021/06/19 07:26:09;;;;;;;5.53;2.97;;;17.80;63.50;;;;;;5077149;28;20116;-83
2021/06/19 07:28:35;;;;;;;3.60;2.53;;;17.80;63.30;;;;;;5097901;28;20169;-81
2021/06/19 07:31:01;;;;;;;3.17;2.45;;;17.70;62.80;;;;;;5087105;28;20472;-82
2021/06/19 07:33:27;;;;;;;2.97;2.55;;;17.70;62.60;;;;;;5090282;28;20021;-82
2021/06/19 07:35:54;;;;;;;3.38;2.70;;;17.60;62.30;;;;;;5084995;28;20028;-81
2021/06/19 07:38:21;;;;;;;3.05;2.70;;;17.60;62.20;;;;;;5085146;28;20024;-82
2021/06/19 07:40:47;;;;;;;3.83;2.55;;;17.60;62.00;;;;;;5085092;28;20521;-81
2021/06/19 07:43:13;;;;;;;3.65;3.10;;;17.60;61.90;;;;;;5101955;28;20032;-81
2021/06/19 07:45:39;;;;;;;5.32;2.88;;;17.60;61.70;;;;;;5086338;28;20066;-81
2021/06/19 07:48:05;;;;;;;7.28;3.30;;;17.60;61.60;;;;;;5097273;28;20055;-81
2021/06/19 07:50:31;;;;;;;5.47;2.90;;;17.60;61.50;;;;;;5087448;28;20387;-83
2021/06/19 07:52:57;;;;;;;5.50;2.95;;;17.60;61.40;;;;;;5074094;28;20032;-80
2021/06/19 07:55:23;;;;;;;3.33;2.45;;;17.60;61.30;;;;;;5091304;28;20438;-79
2021/06/19 07:57:49;;;;;;;3.25;2.95;;;17.60;61.20;;;;;;5089774;28;20025;-79
2021/06/19 08:00:16;;;;;;;6.97;2.47;;;17.60;61.60;;;;;;5072918;28;20036;-85
2021/06/19 08:02:43;;;;;;;4.95;2.95;;;17.70;62.40;;;;;;5086277;28;20044;-80
2021/06/19 08:05:11;;;;;;;4.25;2.90;;;17.80;62.90;;;;;;5089639;28;20024;-81
2021/06/19 08:07:37;;;;;;;3.15;2.40;;;17.90;63.30;;;;;;5083518;28;20066;-80
2021/06/19 08:10:03;;;;;;;3.78;2.78;;;18.00;63.50;;;;;;5083059;28;20487;-81
2021/06/19 08:12:30;;;;;;;3.13;2.60;;;18.10;63.70;;;;;;5071248;28;20039;-80
2021/06/19 08:14:56;;;;;;;3.63;2.85;;;18.20;63.90;;;;;;5105092;28;20055;-84
2021/06/19 08:17:25;;;;;;;6.03;2.55;;;18.30;64.00;;;;;;5087256;28;20035;-82
2021/06/19 08:19:52;;;;;;;2.58;2.38;;;18.30;63.80;;;;;;5086430;28;20085;-81
2021/06/19 08:22:17;;;;;;;4.00;2.30;;;18.40;63.90;;;;;;5085806;28;20123;-82
2021/06/19 08:24:46;;;;;;;4.68;2.28;;;18.40;63.80;;;;;;5087020;28;20442;-82
2021/06/19 08:27:12;;;;;;;3.75;2.22;;;18.40;63.70;;;;;;5087096;28;20038;-81
2021/06/19 08:29:39;;;;;;;2.85;2.40;;;18.50;63.70;;;;;;5088436;28;20486;-81
2021/06/19 08:32:08;;;;;;;2.72;2.35;;;18.50;63.60;;;;;;5089153;28;20032;-80
2021/06/19 08:34:35;;;;;;;2.67;2.38;;;18.50;63.50;;;;;;5088888;28;20028;-81
2021/06/19 08:37:01;;;;;;;1.95;1.80;;;18.60;63.50;;;;;;5072182;28;20115;-81
2021/06/19 08:39:27;;;;;;;3.25;2.33;;;18.60;63.40;;;;;;5069367;28;20116;-81
2021/06/19 08:41:58;;;;;;;3.08;2.42;;;18.70;63.50;;;;;;5059757;28;20555;-80
2021/06/19 08:44:26;;;;;;;4.30;2.20;;;18.70;63.40;;;;;;5088815;28;20094;-80
2021/06/19 08:46:53;;;;;;;2.42;2.22;;;18.70;63.30;;;;;;5088603;28;20105;-80
2021/06/19 08:49:25;;;;;;;2.30;2.10;;;18.80;63.30;;;;;;5071835;28;20029;-80
2021/06/19 08:51:53;;;;;;;3.08;2.30;;;18.80;63.20;;;;;;5051604;28;20035;-80
2021/06/19 08:54:21;;;;;;;2.75;2.17;;;18.80;63.10;;;;;;5048741;28;20030;-80
2021/06/19 08:56:48;;;;;;;2.35;2.15;;;18.90;63.20;;;;;;5088441;28;20036;-81
2021/06/19 08:59:14;;;;;;;1.95;1.73;;;18.90;63.10;;;;;;5071660;28;20034;-81
2021/06/19 09:01:41;;;;;;;3.67;2.17;;;19.00;63.20;;;;;;5086780;28;20044;-81
2021/06/19 09:04:11;;;;;;;2.25;1.80;;;19.10;63.30;;;;;;5071313;28;20503;-81
2021/06/19 09:06:40;;;;;;;3.40;2.58;;;19.20;63.30;;;;;;5088201;28;20090;-80
2021/06/19 09:09:16;;;;;;;3.08;1.92;;;19.30;63.40;;;;;;5105447;28;20119;-81
2021/06/19 09:11:44;;;;;;;1.63;1.52;;;19.30;63.20;;;;;;5087821;28;20078;-80
2021/06/19 09:14:15;;;;;;;2.05;1.75;;;19.40;63.20;;;;;;5071073;28;20514;-80
2021/06/19 09:16:43;;;;;;;2.35;2.00;;;19.50;63.20;;;;;;5088132;28;20051;-79
2021/06/19 09:19:33;;;;;;;1.95;1.75;;;19.60;63.20;;;;;;5087914;28;20480;-79
2021/06/19 09:22:20;;;;;;;1.85;1.67;;;19.80;63.40;;;;;;5087865;28;20082;-81
2021/06/19 09:24:53;;;;;;;2.22;1.85;;;19.80;63.20;;;;;;5070254;28;20032;-81
2021/06/19 09:27:36;;;;;;;1.80;1.70;;;19.90;63.20;;;;;;5067749;28;20503;-82
2021/06/19 09:30:10;;;;;;;1.88;1.65;;;20.00;63.20;;;;;;5084747;28;20029;-82
2021/06/19 09:32:41;;;;;;;2.42;1.50;;;20.10;63.20;;;;;;5067342;28;20036;-81
2021/06/19 09:35:13;;;;;;;2.28;1.60;;;20.20;63.20;;;;;;5071018;28;20356;-81
2021/06/19 09:37:40;;;;;;;1.80;1.70;;;20.40;63.30;;;;;;5088751;28;20032;-81
2021/06/19 09:40:21;;;;;;;1.88;1.73;;;20.40;63.20;;;;;;5088494;28;20024;-81
2021/06/19 09:42:48;;;;;;;1.70;1.60;;;20.60;63.30;;;;;;5088277;28;20040;-81
2021/06/19 09:45:23;;;;;;;1.70;1.60;;;20.70;63.30;;;;;;5083951;28;20052;-82
2021/06/19 09:47:52;;;;;;;2.70;1.90;;;20.70;63.10;;;;;;5068343;28;20057;-86
2021/06/19 09:50:20;;;;;;;3.55;1.38;;;20.80;63.00;;;;;;5067744;28;20119;-81
2021/06/19 09:52:47;;;;;;;1.65;1.55;;;20.90;63.10;;;;;;5067197;28;20028;-82
2021/06/19 09:55:16;;;;;;;3.58;1.38;;;21.00;63.20;;;;;;5083732;28;20492;-82
2021/06/19 09:57:50;;;;;;;1.40;1.30;;;21.00;63.00;;;;;;5083466;28;20031;-78
2021/06/19 10:00:17;;;;;;;;;;;21.10;63.00;;;;;;5083671;28;20132;-84
2021/06/19 10:02:48;;;;;;;2.65;1.77;;;21.20;63.10;;;;;;5066746;28;19981;-80
2021/06/19 10:05:15;;;;;;;2.85;1.50;;;21.30;63.00;;;;;;5066661;28;20025;-82
2021/06/19 10:07:42;;;;;;;1.45;1.35;;;21.30;62.90;;;;;;5085806;28;20069;-83
2021/06/19 10:10:11;;;;;;;1.42;1.30;;;21.50;63.10;;;;;;5070298;28;20058;-81
2021/06/19 10:12:38;;;;;;;1.45;1.35;;;21.60;63.10;;;;;;5089491;28;20053;-81
2021/06/19 10:15:13;;;;;;;1.83;1.60;;;21.70;63.00;;;;;;5069830;28;20056;-81
2021/06/19 10:17:43;;;;;;;1.48;1.30;;;21.80;62.90;;;;;;5103508;28;20036;-80
2021/06/19 10:20:16;;;;;;;1.70;1.55;;;22.00;63.00;;;;;;5070811;28;20491;-80
2021/06/19 10:22:44;;;;;;;1.60;1.40;;;22.10;63.00;;;;;;5086609;28;20384;-78
2021/06/19 10:25:14;;;;;;;2.72;1.60;;;22.10;62.80;;;;;;5083061;28;20093;-79
2021/06/19 10:27:45;;;;;;;1.60;1.48;;;22.20;62.70;;;;;;5066364;28;20280;-79
2021/06/19 10:30:12;;;;;;;1.25;1.08;;;22.30;62.70;;;;;;5066416;28;20125;-80
2021/06/19 10:32:51;;;;;;;1.40;1.23;;;22.30;63.20;;;;;;5084418;28;20431;-78
2021/06/19 10:35:18;;;;;;;1.52;1.42;;;22.30;62.50;;;;;;5073426;28;20506;-80
2021/06/19 10:37:46;;;;;;;1.65;1.42;;;22.30;62.30;;;;;;5085536;28;20123;-79
2021/06/19 10:40:27;;;;;;;1.65;1.40;;;22.40;62.40;;;;;;5085864;28;20467;-78
2021/06/19 10:43:16;;;;;;;1.67;1.38;;;22.40;62.30;;;;;;5079195;28;20040;-79
2021/06/19 10:45:45;;;;;;;1.20;1.13;;;22.40;62.20;;;;;;5068744;28;20045;-79
2021/06/19 10:48:16;;;;;;;1.30;1.20;;;22.50;62.30;;;;;;5065700;28;20044;-80
2021/06/19 10:50:45;;;;;;;1.23;1.13;;;22.50;62.60;;;;;;5050245;28;20436;-80
2021/06/19 10:53:19;;;;;;;1.40;1.20;;;22.60;62.10;;;;;;5066738;28;20028;-83
2021/06/19 10:55:58;;;;;;;1.17;1.08;;;22.60;61.90;;;;;;5066382;28;20165;-81
2021/06/19 10:58:35;;;;;;;1.30;1.20;;;22.60;61.90;;;;;;5056623;28;20344;-84
2021/06/19 11:01:03;;;;;;;1.00;1.00;;;22.70;61.80;;;;;;5085662;28;20146;-82
2021/06/19 11:03:54;;;;;;;1.30;1.20;;;22.80;61.90;;;;;;5084991;28;20509;-82
2021/06/19 11:06:25;;;;;;;1.42;1.33;;;22.80;61.70;;;;;;5068382;28;20036;-82
2021/06/19 11:09:07;;;;;;;1.05;0.90;;;22.80;61.70;;;;;;5083238;28;20027;-82
2021/06/19 11:12:04;;;;;;;1.23;1.13;;;22.80;61.50;;;;;;5061891;28;20159;-83
2021/06/19 11:14:40;;;;;;;1.75;1.15;;;22.80;61.40;;;;;;5075606;28;20070;-82
2021/06/19 11:17:07;;;;;;;1.58;1.40;;;22.80;61.30;;;;;;5069509;28;20032;-82
2021/06/19 11:19:36;;;;;;;1.45;1.10;;;22.80;61.20;;;;;;5087208;28;20039;-84
2021/06/19 11:22:28;;;;;;;1.25;1.15;;;22.80;61.20;;;;;;5088875;28;20032;-82
2021/06/19 11:25:15;;;;;;;1.42;1.30;;;22.80;61.20;;;;;;5105376;28;20131;-83
2021/06/19 11:28:01;;;;;;;2.08;1.40;;;22.80;61.10;;;;;;5074631;28;20634;-84
2021/06/19 11:30:34;;;;;;;4.05;1.40;;;22.90;61.20;;;;;;5089488;28;20122;-83
2021/06/19 11:33:16;;;;;;;1.20;1.10;;;22.90;61.10;;;;;;5087359;28;20170;-82
2021/06/19 11:36:03;;;;;;;3.90;1.17;;;23.00;61.20;;;;;;5070407;28;20032;-87
2021/06/19 11:39:52;;;;;;;2.78;1.63;;;23.00;61.10;;;;;;5088178;28;20034;-89
2021/06/19 11:43:45;;;;;;;2.90;1.90;;;23.10;60.10;;;;;;5088916;28;20078;-89
2021/06/19 11:46:13;;;;;;;4.22;1.92;;;23.10;59.60;;;;;;5095188;28;20024;-82
2021/06/19 11:48:53;;;;;;;4.65;2.17;;;23.00;59.00;;;;;;5095926;28;20419;-84
2021/06/19 11:51:21;;;;;;;1.50;1.40;;;22.90;58.20;;;;;;5095728;28;20043;-86
2021/06/19 11:53:47;;;;;;;2.72;1.42;;;22.80;57.90;;;;;;5067317;28;20017;-84
2021/06/19 11:56:22;;;;;;;2.83;1.52;;;22.80;57.60;;;;;;5088661;28;20040;-83
2021/06/19 11:59:05;;;;;;;2.08;1.30;;;22.60;56.90;;;;;;5092733;28;20073;-85
2021/06/19 12:01:32;;;;;;;3.03;1.10;;;22.50;56.50;;;;;;5073400;28;20028;-88
2021/06/19 12:04:05;;;;;;;5.30;1.60;;;22.40;56.60;;;;;;5085435;28;20036;-83
2021/06/19 12:06:32;;;;;;;1.73;1.40;;;22.40;56.60;;;;;;5082110;28;20016;-83
2021/06/19 12:08:59;;;;;;;1.48;1.27;;;22.30;56.40;;;;;;5079854;28;20043;-81
2021/06/19 12:11:30;;;;;;;2.50;1.45;;;22.20;56.20;;;;;;5096789;28;20032;-81
2021/06/19 12:13:57;;;;;;;1.98;1.67;;;22.20;56.00;;;;;;5095340;28;20047;-82
2021/06/19 12:16:33;;;;;;;3.38;1.52;;;22.20;56.00;;;;;;5088375;28;20038;-82
2021/06/19 12:19:04;;;;;;;2.67;1.58;;;22.10;55.60;;;;;;5085569;28;20033;-82
2021/06/19 12:21:33;;;;;;;2.90;1.48;;;22.10;55.70;;;;;;5069281;28;20466;-81
2021/06/19 12:24:01;;;;;;;3.10;1.58;;;22.10;55.70;;;;;;5070251;28;20127;-81
2021/06/19 12:26:28;;;;;;;4.97;1.52;;;22.10;55.60;;;;;;5072173;28;20123;-82
2021/06/19 12:28:57;;;;;;;3.00;1.40;;;22.00;55.40;;;;;;5079906;28;20059;-83
2021/06/19 12:31:27;;;;;;;2.92;1.80;;;22.00;55.40;;;;;;5072146;28;20085;-83
2021/06/19 12:34:18;;;;;;;3.78;1.60;;;22.00;55.40;;;;;;5080117;28;20124;-84
2021/06/19 12:37:23;;;;;;;1.73;1.60;;;22.00;55.30;;;;;;5089622;28;20051;-90
2021/06/19 12:39:51;;;;;;;3.05;1.60;;;22.00;55.30;;;;;;5086667;28;20032;-79
2021/06/19 12:42:48;;;;;;;1.38;1.25;;;21.90;55.20;;;;;;5081014;28;20040;-82
2021/06/19 12:45:19;;;;;;;2.53;1.75;;;21.80;54.90;;;;;;5084775;28;20056;-78
2021/06/19 12:47:48;;;;;;;3.35;1.80;;;21.80;55.00;;;;;;5087315;28;20060;-79
2021/06/19 12:50:16;;;;;;;2.47;1.60;;;21.70;54.90;;;;;;5105416;28;20035;-79
2021/06/19 12:53:15;;;;;;;3.13;1.90;;;21.60;54.80;;;;;;5071762;28;20039;-79
2021/06/19 12:55:43;;;;;;;1.55;1.45;;;21.50;54.70;;;;;;5036875;28;20048;-79
2021/06/19 12:58:18;;;;;;;3.67;1.90;;;21.40;54.80;;;;;;5061868;28;20029;-79
2021/06/19 13:00:50;;;;;;;2.90;1.88;;;21.40;54.90;;;;;;5078806;28;20115;-79
2021/06/19 13:03:24;;;;;;;2.85;1.65;;;21.30;55.40;;;;;;5081418;28;20495;-79